Terminal Aerodrome Forecast
Issued by NWS

Home | Current Version | Previous Version | Text Only | Print | Product List | Glossary On
Versions: 1 2 3 4 5 6 7 8 9 10 11 12 13 14
000
FTUS43 KMPX 051120
TAFRWF
TAF
KRWF 051120Z 0512/0612 08007KT P6SM SCT250
     FM051700 12012G18KT P6SM VCSH OVC040
     FM060400 12010KT P6SM OVC015=

USA.gov is the U.S. government's official web portal to all federal, state and local government web resources and services.